createdAt,value
2018-12-04T00:00:10.136Z,10.11
2018-12-04T00:05:32.018Z,10.12
2018-12-04T00:07:59.461Z,10.13
2018-12-04T00:13:48.335Z,9.96
2018-12-04T00:19:13.445Z,10.11
2018-12-04T00:21:40.869Z,10.03
2018-12-04T00:24:08.325Z,10.04
2018-12-04T00:26:35.737Z,10.00
2018-12-04T00:29:03.186Z,9.96
2018-12-04T00:31:30.899Z,9.92
2018-12-04T00:33:58.354Z,9.81
2018-12-04T00:36:25.765Z,9.71
2018-12-04T00:38:53.204Z,9.72
2018-12-04T00:41:20.644Z,9.76
2018-12-04T00:43:48.081Z,9.77
2018-12-04T00:46:15.547Z,9.76
2018-12-04T00:49:02.370Z,9.64
2018-12-04T00:57:53.450Z,9.49
2018-12-04T01:00:20.891Z,9.56
2018-12-04T01:02:48.391Z,9.58
2018-12-04T01:07:50.223Z,9.55
2018-12-04T01:10:17.657Z,9.59
2018-12-04T01:13:40.845Z,9.61
2018-12-04T01:28:12.713Z,9.54
2018-12-04T01:30:40.154Z,9.58
2018-12-04T01:33:07.582Z,9.57
2018-12-04T01:35:34.993Z,9.62
2018-12-04T01:38:22.108Z,9.69
2018-12-04T01:41:29.158Z,9.81
2018-12-04T01:43:56.586Z,9.83
2018-12-04T01:46:29.024Z,9.84
2018-12-04T01:48:56.447Z,9.84
2018-12-04T01:51:23.886Z,9.81
2018-12-04T01:53:51.318Z,9.73
2018-12-04T01:56:18.825Z,9.79
2018-12-04T02:01:58.627Z,9.78
2018-12-04T02:04:29.141Z,9.72
2018-12-04T02:06:56.557Z,9.67
2018-12-04T02:09:23.989Z,9.65
2018-12-04T02:11:51.402Z,9.64
2018-12-04T02:14:18.993Z,9.58
2018-12-04T02:16:46.405Z,9.57
2018-12-04T02:19:28.820Z,9.56
2018-12-04T02:21:56.234Z,9.53
2018-12-04T02:24:38.473Z,9.62
2018-12-04T02:27:05.887Z,9.57
2018-12-04T02:29:33.294Z,9.52
2018-12-04T02:32:00.912Z,9.51
2018-12-04T02:34:36.781Z,9.54
2018-12-04T02:37:04.266Z,9.61
2018-12-04T02:39:31.724Z,9.69
2018-12-04T02:41:59.231Z,9.66
2018-12-04T02:44:26.665Z,9.57
2018-12-04T02:49:56.030Z,9.58
2018-12-04T02:55:17.595Z,9.55
2018-12-04T02:57:44.995Z,9.57
2018-12-04T03:00:12.428Z,9.59
2018-12-04T03:02:40.020Z,9.53
2018-12-04T03:05:07.508Z,9.51
2018-12-04T03:07:38.740Z,9.52
2018-12-04T03:10:09.393Z,9.53
2018-12-04T03:12:36.988Z,9.55
2018-12-04T03:15:04.979Z,9.57
2018-12-04T03:17:32.404Z,9.52
2018-12-04T03:19:59.810Z,9.40
2018-12-04T03:22:27.229Z,9.40
2018-12-04T03:24:54.638Z,9.35
2018-12-04T03:27:22.075Z,9.37
2018-12-04T03:29:49.492Z,9.39
2018-12-04T03:32:16.925Z,9.44
2018-12-04T03:34:44.480Z,9.49
2018-12-04T03:37:11.999Z,9.50
2018-12-04T03:39:39.792Z,9.49
2018-12-04T03:42:07.217Z,9.50
2018-12-04T03:44:34.644Z,9.45
2018-12-04T03:47:02.063Z,9.44
2018-12-04T03:49:29.494Z,9.35
2018-12-04T03:51:56.909Z,9.33
2018-12-04T03:54:24.348Z,9.32
2018-12-04T03:56:57.915Z,9.32
2018-12-04T03:59:25.422Z,9.23
2018-12-04T04:01:52.929Z,9.27
2018-12-04T04:04:24.374Z,9.26
2018-12-04T04:06:51.825Z,9.29
2018-12-04T04:09:19.241Z,9.34
2018-12-04T04:11:47.736Z,9.22
2018-12-04T04:14:15.144Z,9.13
2018-12-04T04:16:42.912Z,9.11
2018-12-04T04:19:10.459Z,9.12
2018-12-04T04:21:37.903Z,9.13
2018-12-04T04:24:05.318Z,9.14
2018-12-04T04:26:32.734Z,9.14
2018-12-04T04:29:04.985Z,9.19
2018-12-04T04:31:49.522Z,9.20
2018-12-04T04:34:16.953Z,9.23
2018-12-04T04:36:44.385Z,9.27
2018-12-04T04:39:16.683Z,9.24
2018-12-04T04:41:44.144Z,9.19
2018-12-04T04:44:11.695Z,9.21
2018-12-04T04:46:39.125Z,9.21
2018-12-04T04:49:06.553Z,9.21
2018-12-04T04:51:33.981Z,9.28
2018-12-04T04:54:08.286Z,9.25
2018-12-04T04:56:35.691Z,9.28
2018-12-04T04:59:03.143Z,9.34
2018-12-04T05:01:30.585Z,9.34
2018-12-04T05:03:58.024Z,9.35
2018-12-04T05:06:25.467Z,9.42
2018-12-04T05:08:52.910Z,9.46
2018-12-04T05:11:20.341Z,9.43
2018-12-04T05:13:47.767Z,9.37
2018-12-04T05:16:15.200Z,9.26
2018-12-04T05:18:42.649Z,9.19
2018-12-04T05:21:10.091Z,9.21
2018-12-04T05:23:37.776Z,9.20
2018-12-04T05:26:05.283Z,9.17
2018-12-04T05:28:32.720Z,9.21
2018-12-04T05:33:50.415Z,8.99
2018-12-04T05:36:17.910Z,8.91
2018-12-04T05:38:45.361Z,8.86
2018-12-04T05:41:12.807Z,8.79
2018-12-04T05:43:41.208Z,8.80
2018-12-04T05:46:08.631Z,8.80
2018-12-04T05:48:36.053Z,8.86
2018-12-04T05:51:03.490Z,8.77
2018-12-04T05:53:32.251Z,8.77
2018-12-04T05:56:01.635Z,8.80
2018-12-04T05:58:29.054Z,8.75
2018-12-04T06:00:56.499Z,8.71
2018-12-04T06:03:28.811Z,8.69
2018-12-04T06:05:56.248Z,8.72
2018-12-04T06:08:25.619Z,8.74
2018-12-04T06:10:53.939Z,8.74
2018-12-04T06:13:21.382Z,8.73
2018-12-04T06:15:54.033Z,8.75
2018-12-04T06:18:26.369Z,8.68
2018-12-04T06:20:53.885Z,8.62
2018-12-04T06:23:21.394Z,8.54
2018-12-04T06:25:48.800Z,8.55
2018-12-04T06:28:16.230Z,8.56
2018-12-04T06:30:43.688Z,8.56
2018-12-04T06:33:11.096Z,8.54
2018-12-04T06:35:44.671Z,8.47
2018-12-04T06:38:12.089Z,8.47
2018-12-04T06:40:44.380Z,8.52
2018-12-04T06:46:02.297Z,8.48
2018-12-04T06:48:29.779Z,8.45
2018-12-04T06:50:57.218Z,8.41
2018-12-04T06:53:24.652Z,8.32
2018-12-04T06:55:52.181Z,8.35
2018-12-04T06:58:21.705Z,8.25
2018-12-04T07:00:53.067Z,8.27
2018-12-04T07:03:21.497Z,8.31
2018-12-04T07:05:51.090Z,8.34
2018-12-04T07:08:18.551Z,8.30
2018-12-04T07:10:50.042Z,8.21
2018-12-04T07:13:17.470Z,8.25
2018-12-04T07:15:49.908Z,8.23
2018-12-04T07:18:17.326Z,8.26
2018-12-04T07:20:44.759Z,8.26
2018-12-04T07:23:12.277Z,8.29
2018-12-04T07:25:39.695Z,8.30
2018-12-04T07:28:07.130Z,8.35
2018-12-04T07:30:34.539Z,8.36
2018-12-04T07:33:06.865Z,8.35
2018-12-04T07:35:34.308Z,8.35
2018-12-04T07:38:01.731Z,8.37
2018-12-04T07:43:59.491Z,8.27
2018-12-04T07:46:26.993Z,8.16
2018-12-04T07:48:54.703Z,8.15
2018-12-04T07:51:22.112Z,8.11
2018-12-04T07:53:52.344Z,7.99
2018-12-04T07:56:24.713Z,7.99
2018-12-04T07:58:52.199Z,7.98
2018-12-04T08:01:19.848Z,7.97
2018-12-04T08:09:26.269Z,8.08
2018-12-04T08:20:25.606Z,7.93
2018-12-04T08:22:53.175Z,7.85
2018-12-04T08:25:20.625Z,7.83
2018-12-04T08:27:48.044Z,7.85
2018-12-04T08:30:30.393Z,7.83
2018-12-04T08:33:04.874Z,7.88
2018-12-04T08:35:32.297Z,7.87
2018-12-04T08:37:59.746Z,7.88
2018-12-04T08:40:27.170Z,7.90
2018-12-04T08:42:54.706Z,7.89
2018-12-04T08:45:22.114Z,7.93
2018-12-04T08:47:49.640Z,7.91
2018-12-04T08:50:23.891Z,7.93
2018-12-04T08:52:51.422Z,7.93
2018-12-04T08:55:18.870Z,7.91
2018-12-04T09:00:20.105Z,7.94
2018-12-04T09:02:47.671Z,7.93
2018-12-04T09:05:15.153Z,7.95
2018-12-04T09:07:42.731Z,7.95
2018-12-04T09:10:10.159Z,7.99
2018-12-04T09:12:37.598Z,8.00
2018-12-04T09:15:14.488Z,8.02
2018-12-04T09:17:41.922Z,8.04
2018-12-04T09:20:09.397Z,8.07
2018-12-04T09:22:36.953Z,8.12
2018-12-04T09:25:11.133Z,8.13
2018-12-04T09:27:42.572Z,8.16
2018-12-04T09:30:10.665Z,8.18
2018-12-04T09:32:38.212Z,8.21
2018-12-04T09:35:05.799Z,8.25
2018-12-04T09:37:33.248Z,8.30
2018-12-04T09:40:00.661Z,8.35
2018-12-04T09:42:28.196Z,8.44
2018-12-04T09:44:55.649Z,8.44
2018-12-04T09:47:28.122Z,8.39
2018-12-04T09:49:55.776Z,8.41
2018-12-04T09:52:25.042Z,8.47
2018-12-04T09:54:52.444Z,8.46
2018-12-04T09:57:21.810Z,8.45
2018-12-04T09:59:50.089Z,8.49
2018-12-04T10:02:17.555Z,8.62
2018-12-04T10:04:44.983Z,8.74
2018-12-04T10:07:12.411Z,8.82
2018-12-04T10:09:44.884Z,8.91
2018-12-04T10:12:17.288Z,9.02
2018-12-04T10:14:44.702Z,9.14
2018-12-04T10:17:12.138Z,9.29
2018-12-04T10:19:39.562Z,9.41
2018-12-04T10:22:06.992Z,9.46
2018-12-04T10:24:34.431Z,9.60
2018-12-04T10:27:01.932Z,9.77
2018-12-04T10:29:29.439Z,9.87
2018-12-04T10:32:03.690Z,9.94
2018-12-04T10:34:31.105Z,9.90
2018-12-04T10:37:03.546Z,9.96
2018-12-04T10:39:31.011Z,10.02
2018-12-04T10:41:58.443Z,10.00
2018-12-04T10:44:25.876Z,9.93
2018-12-04T10:46:53.294Z,10.02
2018-12-04T10:49:20.751Z,10.20
2018-12-04T10:51:48.170Z,10.31
2018-12-04T10:54:15.630Z,10.32
2018-12-04T10:56:43.152Z,10.34
2018-12-04T10:59:10.812Z,10.43
2018-12-04T11:01:44.841Z,10.60
2018-12-04T11:04:12.516Z,10.84
2018-12-04T11:06:49.522Z,10.89
2018-12-04T11:09:21.217Z,10.99
2018-12-04T11:11:48.705Z,11.02
2018-12-04T11:14:16.165Z,11.07
2018-12-04T11:16:43.606Z,11.11
2018-12-04T11:19:16.983Z,11.16
2018-12-04T11:21:52.493Z,11.28
2018-12-04T11:24:19.930Z,11.37
2018-12-04T11:26:47.386Z,11.45
2018-12-04T11:29:14.836Z,11.60
2018-12-04T11:31:44.140Z,11.86
2018-12-04T11:34:11.555Z,12.16
2018-12-04T11:37:00.967Z,12.39
2018-12-04T11:39:29.203Z,12.47
2018-12-04T11:42:00.754Z,12.45
2018-12-04T11:44:28.186Z,12.56
2018-12-04T11:46:55.637Z,12.82
2018-12-04T11:49:23.077Z,12.91
2018-12-04T11:51:50.513Z,13.03
2018-12-04T11:54:17.944Z,13.18
2018-12-04T11:56:45.369Z,13.44
2018-12-04T11:59:12.810Z,13.67
2018-12-04T12:01:40.234Z,13.81
2018-12-04T12:04:07.660Z,14.09
2018-12-04T12:06:35.122Z,14.17
2018-12-04T12:09:02.555Z,14.09
2018-12-04T12:11:34.955Z,14.28
2018-12-04T12:14:02.474Z,14.35
2018-12-04T12:16:29.890Z,14.40
2018-12-04T12:18:57.436Z,14.46
2018-12-04T12:21:24.864Z,14.65
2018-12-04T12:23:52.322Z,14.65
2018-12-04T12:26:19.747Z,14.34
2018-12-04T12:28:47.169Z,14.25
2018-12-04T12:31:14.833Z,14.42
2018-12-04T12:33:42.270Z,14.86
2018-12-04T12:36:14.487Z,14.53
2018-12-04T12:38:41.911Z,14.75
2018-12-04T12:41:09.328Z,15.10
2018-12-04T12:43:36.786Z,14.99
2018-12-04T12:46:07.093Z,14.48
2018-12-04T12:48:38.720Z,14.00
2018-12-04T12:51:06.128Z,14.13
2018-12-04T12:53:35.442Z,14.11
2018-12-04T12:56:02.874Z,13.82
2018-12-04T12:58:30.338Z,13.66
2018-12-04T13:00:57.776Z,13.54
2018-12-04T13:03:25.417Z,13.05
2018-12-04T13:05:52.859Z,12.57
2018-12-04T13:08:20.312Z,12.50
2018-12-04T13:10:51.948Z,12.87
2018-12-04T13:13:19.498Z,13.17
2018-12-04T13:15:47.065Z,13.39
2018-12-04T13:18:29.554Z,13.32
2018-12-04T13:20:57.946Z,13.13
2018-12-04T13:23:25.356Z,13.01
2018-12-04T13:25:52.798Z,12.89
2018-12-04T13:28:20.367Z,12.69
2018-12-04T13:30:53.019Z,12.34
2018-12-04T13:33:20.540Z,12.24
2018-12-04T13:35:47.990Z,12.21
2018-12-04T13:38:15.502Z,12.17
2018-12-04T13:40:42.958Z,12.07
2018-12-04T13:43:10.481Z,11.92
2018-12-04T13:48:28.627Z,11.54
2018-12-04T13:50:56.101Z,11.53
2018-12-04T13:53:23.627Z,11.49
2018-12-04T13:55:51.143Z,11.46
2018-12-04T13:58:18.639Z,11.37
2018-12-04T14:00:46.460Z,11.37
2018-12-04T14:03:16.896Z,11.32
2018-12-04T14:05:47.692Z,11.25
2018-12-04T14:08:15.227Z,11.19
2018-12-04T14:10:42.897Z,11.15
2018-12-04T14:13:15.301Z,11.07
2018-12-04T14:15:42.796Z,11.06
2018-12-04T14:18:10.242Z,11.01
2018-12-04T14:20:37.679Z,10.97
2018-12-04T14:23:05.234Z,10.91
2018-12-04T14:25:32.774Z,10.87
2018-12-04T14:28:15.398Z,10.84
2018-12-04T14:30:42.847Z,10.78
2018-12-04T14:33:10.429Z,10.74
2018-12-04T14:35:37.987Z,10.69
2018-12-04T14:38:05.598Z,10.63
2018-12-04T14:40:33.039Z,10.61
2018-12-04T14:43:00.543Z,10.56
2018-12-04T14:45:27.991Z,10.53
2018-12-04T14:47:55.571Z,10.50
2018-12-04T14:50:23.099Z,10.48
2018-12-04T14:52:50.638Z,10.49
2018-12-04T14:55:18.311Z,10.47
2018-12-04T14:57:45.832Z,10.45
2018-12-04T15:00:13.824Z,10.43
2018-12-04T15:02:41.257Z,10.38
2018-12-04T15:05:08.792Z,10.33
2018-12-04T15:10:11.487Z,10.20
2018-12-04T15:12:43.148Z,10.15
2018-12-04T15:15:10.829Z,10.10
2018-12-04T15:17:38.267Z,10.03
2018-12-04T15:20:06.714Z,9.97
2018-12-04T15:22:34.267Z,9.90
2018-12-04T15:25:01.818Z,9.86
2018-12-04T15:27:29.367Z,9.81
2018-12-04T15:30:00.858Z,9.73
2018-12-04T15:32:28.396Z,9.68
2018-12-04T15:34:55.934Z,9.66
2018-12-04T15:37:26.469Z,9.60
2018-12-04T15:39:53.943Z,9.55
2018-12-04T15:42:29.977Z,9.49
2018-12-04T15:44:57.517Z,9.45
2018-12-04T15:47:25.081Z,9.40
2018-12-04T15:49:54.524Z,9.37
2018-12-04T15:52:22.158Z,9.35
2018-12-04T15:54:49.660Z,9.31
2018-12-04T15:57:21.076Z,9.30
2018-12-04T15:59:48.773Z,9.27
2018-12-04T16:02:16.226Z,9.24
2018-12-04T16:04:43.647Z,9.20
2018-12-04T16:07:12.085Z,9.18
2018-12-04T16:09:39.544Z,9.14
2018-12-04T16:12:07.161Z,9.11
2018-12-04T16:14:34.577Z,9.08
2018-12-04T16:17:02.036Z,9.06
2018-12-04T16:19:29.462Z,9.02
2018-12-04T16:21:56.919Z,9.00
2018-12-04T16:24:24.351Z,8.98
2018-12-04T16:26:51.785Z,8.95
2018-12-04T16:29:23.269Z,8.93
2018-12-04T16:31:50.742Z,8.91
2018-12-04T16:37:25.578Z,8.85
2018-12-04T16:39:53.012Z,8.82
2018-12-04T16:42:26.479Z,8.80
2018-12-04T16:47:32.248Z,8.76
2018-12-04T17:00:52.034Z,8.66
2018-12-04T17:03:26.458Z,8.66
2018-12-04T17:14:26.241Z,8.59
2018-12-04T17:25:25.781Z,8.53
2018-12-04T17:30:39.352Z,8.50
2018-12-04T17:33:27.355Z,8.49
2018-12-04T17:49:37.870Z,8.39
2018-12-04T17:52:05.404Z,8.37
2018-12-04T17:54:32.827Z,8.33
2018-12-04T17:59:40.775Z,8.31
2018-12-04T18:02:26.264Z,8.30
2018-12-04T18:13:06.093Z,8.24
2018-12-04T18:15:33.522Z,8.25
2018-12-04T18:18:00.987Z,8.25
2018-12-04T18:20:28.399Z,8.22
2018-12-04T18:22:55.907Z,8.19
2018-12-04T18:27:57.298Z,8.16
2018-12-04T18:30:24.969Z,8.16
2018-12-04T18:32:52.413Z,8.15
2018-12-04T18:35:19.859Z,8.16
2018-12-04T18:37:47.289Z,8.14
2018-12-04T18:40:14.822Z,8.12
2018-12-04T18:42:42.272Z,8.13
2018-12-04T18:45:13.816Z,8.11
2018-12-04T18:47:41.244Z,8.10
2018-12-04T18:50:16.613Z,8.10
2018-12-04T18:52:50.007Z,8.09
2018-12-04T18:55:19.626Z,8.09
2018-12-04T19:00:22.137Z,8.06
2018-12-04T19:02:49.559Z,8.06
2018-12-04T19:05:17.147Z,8.02
2018-12-04T19:07:44.666Z,8.01
2018-12-04T19:10:12.114Z,8.01
2018-12-04T19:12:39.534Z,8.00
2018-12-04T19:17:40.972Z,7.91
2018-12-04T19:20:12.841Z,7.90
2018-12-04T19:22:41.968Z,7.90
2018-12-04T19:25:09.753Z,7.88
2018-12-04T19:27:41.227Z,7.87
2018-12-04T19:30:12.954Z,7.86
2018-12-04T19:32:40.511Z,7.86
2018-12-04T19:35:09.216Z,7.83
2018-12-04T19:37:36.708Z,7.81
2018-12-04T19:42:43.687Z,7.75
2018-12-04T19:45:11.188Z,7.72
2018-12-04T19:47:38.659Z,7.70
2018-12-04T19:50:06.807Z,7.71
2018-12-04T19:52:34.414Z,7.70
2018-12-04T19:55:05.964Z,7.69
2018-12-04T19:57:34.283Z,7.67
2018-12-04T20:00:01.722Z,7.67
2018-12-04T20:02:29.215Z,7.64
2018-12-04T20:04:56.640Z,7.61
2018-12-04T20:07:24.057Z,7.58
2018-12-04T20:09:51.478Z,7.56
2018-12-04T20:12:18.938Z,7.55
2018-12-04T20:14:46.364Z,7.55
2018-12-04T20:17:13.849Z,7.55
2018-12-04T20:19:41.308Z,7.54
2018-12-04T20:22:08.828Z,7.51
2018-12-04T20:24:36.382Z,7.51
2018-12-04T20:27:04.063Z,7.48
2018-12-04T20:29:31.664Z,7.47
2018-12-04T20:31:59.151Z,7.46
2018-12-04T20:34:26.674Z,7.44
2018-12-04T20:36:54.260Z,7.40
2018-12-04T20:42:56.425Z,7.38
2018-12-04T20:45:23.878Z,7.35
2018-12-04T20:47:51.333Z,7.33
2018-12-04T20:50:18.789Z,7.29
2018-12-04T20:52:46.386Z,7.26
2018-12-04T20:55:13.892Z,7.26
2018-12-04T20:57:41.423Z,7.25
2018-12-04T21:00:14.485Z,7.24
2018-12-04T21:02:42.004Z,7.22
2018-12-04T21:05:16.451Z,7.20
2018-12-04T21:07:49.940Z,7.18
2018-12-04T21:10:17.486Z,7.18
2018-12-04T21:12:44.988Z,7.17
2018-12-04T21:15:12.424Z,7.18
2018-12-04T21:17:39.859Z,7.20
2018-12-04T21:20:11.423Z,7.19
2018-12-04T21:22:40.796Z,7.19
2018-12-04T21:25:08.264Z,7.17
2018-12-04T21:27:41.297Z,7.15
2018-12-04T21:30:15.700Z,7.14
2018-12-04T21:32:55.944Z,7.14
2018-12-04T21:35:31.077Z,7.13
2018-12-04T21:38:04.768Z,7.12
2018-12-04T21:40:37.829Z,7.13
2018-12-04T21:43:11.003Z,7.13
2018-12-04T21:48:50.572Z,7.09
2018-12-04T21:51:18.009Z,7.09
2018-12-04T21:53:45.629Z,7.09
2018-12-04T21:56:13.054Z,7.07
2018-12-04T21:58:40.518Z,7.06
2018-12-04T22:01:08.034Z,7.04
2018-12-04T22:03:35.491Z,7.02
2018-12-04T22:06:02.905Z,7.01
2018-12-04T22:08:30.346Z,7.00
2018-12-04T22:13:32.747Z,6.99
2018-12-04T22:16:00.189Z,6.96
2018-12-04T22:18:27.739Z,6.94
2018-12-04T22:20:55.300Z,6.92
2018-12-04T22:23:22.809Z,6.91
2018-12-04T22:25:50.249Z,6.91
2018-12-04T22:28:17.783Z,6.90
2018-12-04T22:30:45.215Z,6.91
2018-12-04T22:33:12.638Z,6.91
2018-12-04T22:35:42.013Z,6.92
2018-12-04T22:38:09.432Z,6.92
2018-12-04T22:40:36.899Z,6.89
2018-12-04T22:43:04.326Z,6.79
2018-12-04T22:45:47.048Z,6.80
2018-12-04T22:48:14.462Z,6.82
2018-12-04T22:50:42.093Z,6.86
2018-12-04T22:53:09.539Z,6.89
2018-12-04T22:55:36.991Z,6.89
2018-12-04T22:58:04.457Z,6.87
2018-12-04T23:00:38.100Z,6.88
2018-12-04T23:03:05.630Z,6.88
2018-12-04T23:05:33.082Z,6.87
2018-12-04T23:08:00.513Z,6.86
2018-12-04T23:10:28.035Z,6.88
2018-12-04T23:12:55.481Z,6.88
2018-12-04T23:15:22.914Z,6.86
2018-12-04T23:20:51.276Z,6.84
2018-12-04T23:23:18.698Z,6.82
2018-12-04T23:25:46.243Z,6.81
2018-12-04T23:28:21.611Z,6.81
2018-12-04T23:30:49.045Z,6.79
2018-12-04T23:33:16.487Z,6.78
2018-12-04T23:38:48.716Z,6.76
2018-12-04T23:41:16.228Z,6.77
2018-12-04T23:43:43.657Z,6.74
2018-12-04T23:46:18.985Z,6.72
2018-12-04T23:48:46.734Z,6.67
2018-12-04T23:51:14.184Z,6.61
2018-12-04T23:53:41.625Z,6.56
2018-12-04T23:56:09.147Z,6.52
2018-12-04T23:58:40.542Z,6.51
